Time,TemperatureF,DewpointF,PressureIn,WindDirection,WindDirectionDegrees,WindSpeedMPH,WindSpeedGustMPH,Humidity,HourlyPrecipIn,Conditions,Clouds,dailyrainin,SolarRadiationWatts/m^2,SoftwareType,DateUTC
2013-08-07 00:02:00,54.5,51.9,29.98,ESE,123,0.0,0.0,91,0.00,CLR,OVC,0.00,0.0,WeatherDisplay:10.37,2013-08-06 23:02:00,
2013-08-07 00:07:00,54.7,52.1,29.98,ESE,123,0.0,0.0,91,0.00,CLR,OVC,0.00,0.0,WeatherDisplay:10.37,2013-08-06 23:07:00,
2013-08-07 00:12:00,54.9,52.0,29.98,West,274,0.0,0.0,90,0.00,CLR,OVC,0.00,0.0,WeatherDisplay:10.37,2013-08-06 23:12:00,
2013-08-07 00:17:00,55.0,51.8,29.98,West,274,0.0,0.0,89,0.00,CLR,OVC,0.00,0.0,WeatherDisplay:10.37,2013-08-06 23:17:00,
2013-08-07 00:22:00,55.1,51.9,29.98,West,274,0.0,0.0,89,0.00,CLR,OVC,0.00,0.0,WeatherDisplay:10.37,2013-08-06 23:22:00,
2013-08-07 00:27:00,55.1,51.9,29.98,West,274,0.0,0.0,89,0.00,CLR,OVC,0.00,0.0,WeatherDisplay:10.37,2013-08-06 23:27:00,
2013-08-07 00:32:00,55.3,52.1,29.98,West,274,0.0,0.0,89,0.00,CLR,OVC,0.00,0.0,WeatherDisplay:10.37,2013-08-06 23:32:00,
2013-08-07 00:37:00,55.3,52.1,29.98,West,274,0.0,0.0,89,0.00,CLR,OVC,0.00,0.0,WeatherDisplay:10.37,2013-08-06 23:37:00,
2013-08-07 00:42:00,55.3,52.1,29.98,West,274,0.0,0.0,89,0.00,CLR,OVC,0.00,0.0,WeatherDisplay:10.37,2013-08-06 23:42:00,
2013-08-07 00:47:00,55.2,52.0,29.98,West,274,0.0,0.0,89,0.00,CLR,OVC,0.00,0.0,WeatherDisplay:10.37,2013-08-06 23:47:00,
2013-08-07 00:52:00,55.2,52.0,29.98,West,274,0.0,0.0,89,0.00,CLR,OVC,0.00,0.0,WeatherDisplay:10.37,2013-08-06 23:52:00,
2013-08-07 00:57:00,55.2,52.0,29.98,West,274,0.0,0.0,89,0.00,CLR,OVC,0.00,0.0,WeatherDisplay:10.37,2013-08-06 23:57:00,
2013-08-07 01:02:00,55.2,52.0,29.98,West,274,0.0,0.0,89,0.00,CLR,OVC,0.00,0.0,WeatherDisplay:10.37,2013-08-07 00:02:00,
2013-08-07 01:07:00,55.2,52.0,29.98,West,274,0.0,0.0,89,0.00,CLR,OVC,0.00,0.0,WeatherDisplay:10.37,2013-08-07 00:07:00,
2013-08-07 01:12:00,55.2,52.0,29.98,West,274,0.0,0.0,89,0.00,CLR,OVC,0.00,0.0,WeatherDisplay:10.37,2013-08-07 00:12:00,
2013-08-07 01:17:00,55.2,52.0,29.98,West,274,1.2,0.0,89,0.00,CLR,OVC,0.00,0.0,WeatherDisplay:10.37,2013-08-07 00:17:00,
2013-08-07 01:22:00,55.3,52.1,29.98,West,274,0.0,0.0,89,0.00,CLR,OVC,0.00,0.0,WeatherDisplay:10.37,2013-08-07 00:22:00,
2013-08-07 01:27:00,55.3,52.1,29.98,West,274,0.0,0.0,89,0.00,CLR,OVC,0.00,0.0,WeatherDisplay:10.37,2013-08-07 00:27:00,
2013-08-07 01:32:00,55.2,52.0,29.98,West,274,0.0,0.0,89,0.00,CLR,OVC,0.00,0.0,WeatherDisplay:10.37,2013-08-07 00:32:00,
2013-08-07 01:37:00,55.2,52.0,29.98,West,274,0.0,0.0,89,0.00,CLR,OVC,0.00,0.0,WeatherDisplay:10.37,2013-08-07 00:37:00,
2013-08-07 01:42:00,55.2,52.0,29.98,West,274,0.0,0.0,89,0.00,CLR,OVC,0.00,0.0,WeatherDisplay:10.37,2013-08-07 00:42:00,
2013-08-07 01:48:00,55.2,52.0,29.98,West,274,0.0,0.0,89,0.00,CLR,OVC,0.00,0.0,WeatherDisplay:10.37,2013-08-07 00:48:00,
2013-08-07 01:53:00,55.1,51.9,29.98,West,274,0.0,0.1,89,0.00,CLR,OVC,0.00,0.0,WeatherDisplay:10.37,2013-08-07 00:53:00,
2013-08-07 01:58:00,55.0,51.8,29.98,West,274,0.0,0.0,89,0.00,CLR,OVC,0.00,0.0,WeatherDisplay:10.37,2013-08-07 00:58:00,
2013-08-07 02:03:00,55.0,51.8,29.98,West,274,0.0,0.0,89,0.00,CLR,OVC,0.00,0.0,WeatherDisplay:10.37,2013-08-07 01:03:00,
2013-08-07 02:08:00,54.9,51.7,29.98,West,274,0.0,0.0,89,0.00,CLR,OVC,0.00,0.0,WeatherDisplay:10.37,2013-08-07 01:08:00,
2013-08-07 02:13:00,54.8,51.6,29.98,West,274,0.0,0.0,89,0.00,CLR,OVC,0.00,0.0,WeatherDisplay:10.37,2013-08-07 01:13:00,
2013-08-07 02:18:00,54.7,51.5,29.98,West,274,0.0,0.0,89,0.00,CLR,OVC,0.00,0.0,WeatherDisplay:10.37,2013-08-07 01:18:00,
2013-08-07 02:23:00,54.6,51.4,29.98,West,274,0.0,0.0,89,0.00,CLR,OVC,0.00,0.0,WeatherDisplay:10.37,2013-08-07 01:23:00,
2013-08-07 02:28:00,54.5,51.3,29.98,West,274,0.0,0.0,89,0.00,CLR,OVC,0.00,0.0,WeatherDisplay:10.37,2013-08-07 01:28:00,
2013-08-07 02:33:00,54.3,50.8,29.98,West,274,0.0,0.0,88,0.00,CLR,OVC,0.00,0.0,WeatherDisplay:10.37,2013-08-07 01:33:00,
2013-08-07 02:38:00,54.0,50.5,29.98,West,274,0.0,0.0,88,0.00,CLR,OVC,0.00,0.0,WeatherDisplay:10.37,2013-08-07 01:38:00,
2013-08-07 02:43:00,53.9,50.7,29.98,West,274,0.0,0.0,89,0.00,CLR,OVC,0.00,0.0,WeatherDisplay:10.37,2013-08-07 01:43:00,
2013-08-07 02:48:00,53.9,50.7,29.97,West,271,1.2,1.2,89,0.00,CLR,OVC,0.00,0.0,WeatherDisplay:10.37,2013-08-07 01:48:00,
2013-08-07 02:53:00,53.9,50.7,29.97,West,269,0.0,0.0,89,0.00,CLR,OVC,0.00,0.0,WeatherDisplay:10.37,2013-08-07 01:53:00,
2013-08-07 02:58:00,53.9,50.7,29.97,West,269,0.0,0.0,89,0.00,CLR,OVC,0.00,0.0,WeatherDisplay:10.37,2013-08-07 01:58:00,
2013-08-07 03:03:00,53.9,51.0,29.97,West,268,0.0,0.0,90,0.00,CLR,OVC,0.00,0.0,WeatherDisplay:10.37,2013-08-07 02:03:00,
2013-08-07 03:08:00,53.9,50.7,29.97,West,269,0.0,0.0,89,0.00,CLR,OVC,0.00,0.0,WeatherDisplay:10.37,2013-08-07 02:08:00,
2013-08-07 03:13:00,53.8,50.6,29.97,West,269,0.0,0.0,89,0.00,CLR,OVC,0.00,0.0,WeatherDisplay:10.37,2013-08-07 02:13:00,
2013-08-07 03:18:00,53.8,50.6,29.96,West,269,0.0,0.0,89,0.00,CLR,OVC,0.00,0.0,WeatherDisplay:10.37,2013-08-07 02:18:00,
2013-08-07 03:23:00,53.7,50.5,29.97,West,269,0.0,0.0,89,0.00,CLR,OVC,0.00,0.0,WeatherDisplay:10.37,2013-08-07 02:23:00,
2013-08-07 03:28:00,53.7,50.5,29.97,West,269,0.0,0.0,89,0.00,CLR,OVC,0.00,0.0,WeatherDisplay:10.37,2013-08-07 02:28:00,
2013-08-07 03:33:00,53.7,50.5,29.97,West,269,0.0,0.0,89,0.00,CLR,OVC,0.00,0.0,WeatherDisplay:10.37,2013-08-07 02:33:00,
2013-08-07 03:38:00,53.7,50.5,29.97,West,269,0.0,0.0,89,0.00,CLR,OVC,0.00,0.0,WeatherDisplay:10.37,2013-08-07 02:38:00,
2013-08-07 03:43:00,53.7,50.5,29.97,West,269,0.0,0.0,89,0.00,CLR,OVC,0.00,0.0,WeatherDisplay:10.37,2013-08-07 02:43:00,
2013-08-07 03:48:00,53.6,50.4,29.97,West,269,0.0,0.0,89,0.00,CLR,OVC,0.00,0.0,WeatherDisplay:10.37,2013-08-07 02:48:00,
2013-08-07 03:53:00,53.6,50.4,29.96,West,268,0.0,0.0,89,0.00,CLR,OVC,0.00,0.0,WeatherDisplay:10.37,2013-08-07 02:53:00,
2013-08-07 03:58:00,53.6,50.4,29.96,West,269,0.0,0.0,89,0.00,CLR,OVC,0.00,0.0,WeatherDisplay:10.37,2013-08-07 02:58:00,
2013-08-07 04:03:00,53.4,50.2,29.97,West,269,0.0,0.0,89,0.00,CLR,OVC,0.00,0.0,WeatherDisplay:10.37,2013-08-07 03:03:00,
2013-08-07 04:08:00,53.3,50.1,29.97,West,268,0.0,0.0,89,0.00,CLR,OVC,0.00,0.0,WeatherDisplay:10.37,2013-08-07 03:08:00,
2013-08-07 04:13:00,53.2,50.0,29.97,West,269,0.0,0.0,89,0.00,CLR,OVC,0.00,0.0,WeatherDisplay:10.37,2013-08-07 03:13:00,
2013-08-07 04:18:00,53.2,50.0,29.97,West,269,0.0,0.0,89,0.00,CLR,OVC,0.00,0.0,WeatherDisplay:10.37,2013-08-07 03:18:00,
2013-08-07 04:23:00,53.3,50.4,29.97,West,269,0.0,0.0,90,0.00,CLR,OVC,0.00,0.0,WeatherDisplay:10.37,2013-08-07 03:23:00,
2013-08-07 04:28:00,53.4,50.5,29.96,West,268,0.0,0.0,90,0.00,CLR,OVC,0.00,0.0,WeatherDisplay:10.37,2013-08-07 03:28:00,
2013-08-07 04:33:00,53.5,50.6,29.97,West,269,0.0,0.0,90,0.00,CLR,OVC,0.00,0.0,WeatherDisplay:10.37,2013-08-07 03:33:00,
2013-08-07 04:38:00,53.5,50.6,29.97,West,268,1.2,0.0,90,0.00,CLR,OVC,0.00,0.0,WeatherDisplay:10.37,2013-08-07 03:38:00,
2013-08-07 04:43:00,53.6,50.7,29.97,West,269,0.0,0.0,90,0.00,CLR,OVC,0.00,0.0,WeatherDisplay:10.37,2013-08-07 03:43:00,
2013-08-07 04:48:00,53.6,50.7,29.97,West,268,0.0,0.0,90,0.00,CLR,OVC,0.00,0.0,WeatherDisplay:10.37,2013-08-07 03:48:00,
2013-08-07 04:53:00,53.6,50.7,29.97,West,267,1.2,0.0,90,0.00,CLR,OVC,0.00,0.0,WeatherDisplay:10.37,2013-08-07 03:53:00,
2013-08-07 04:58:00,53.7,50.8,29.97,West,267,0.0,0.0,90,0.00,CLR,OVC,0.00,0.0,WeatherDisplay:10.37,2013-08-07 03:58:00,
2013-08-07 05:01:00,53.8,50.9,29.97,West,264,1.2,0.0,90,0.00,CLR,OVC,0.00,0.0,WeatherDisplay:10.37,2013-08-07 04:01:00,
2013-08-07 05:06:00,53.8,50.9,29.97,West,264,0.0,0.0,90,0.00,CLR,OVC,0.00,0.0,WeatherDisplay:10.37,2013-08-07 04:06:00,
2013-08-07 05:11:00,53.8,50.9,29.97,West,264,1.2,1.2,90,0.00,CLR,OVC,0.00,0.0,WeatherDisplay:10.37,2013-08-07 04:11:00,
2013-08-07 05:16:00,53.8,50.9,29.97,West,263,0.0,0.0,90,0.00,CLR,OVC,0.00,0.0,WeatherDisplay:10.37,2013-08-07 04:16:00,
2013-08-07 05:21:00,53.9,51.0,29.97,West,263,0.0,0.0,90,0.00,CLR,OVC,0.00,0.0,WeatherDisplay:10.37,2013-08-07 04:21:00,
2013-08-07 05:26:00,53.9,51.0,29.97,West,263,0.0,0.0,90,0.00,CLR,OVC,0.00,0.0,WeatherDisplay:10.37,2013-08-07 04:26:00,
2013-08-07 05:31:00,53.9,51.0,29.97,West,263,0.0,0.0,90,0.00,CLR,OVC,0.00,0.0,WeatherDisplay:10.37,2013-08-07 04:31:00,
2013-08-07 05:36:00,53.8,50.9,29.98,West,263,0.0,0.0,90,0.00,CLR,OVC,0.00,0.0,WeatherDisplay:10.37,2013-08-07 04:36:00,
2013-08-07 05:41:00,53.8,50.6,29.98,West,263,0.0,0.0,89,0.00,CLR,OVC,0.00,0.0,WeatherDisplay:10.37,2013-08-07 04:41:00,
2013-08-07 05:46:00,53.7,50.5,29.98,West,263,0.0,0.0,89,0.00,CLR,OVC,0.00,0.0,WeatherDisplay:10.37,2013-08-07 04:46:00,
2013-08-07 05:51:00,53.7,50.8,29.98,WSW,255,0.0,0.0,90,0.00,CLR,OVC,0.00,0.0,WeatherDisplay:10.37,2013-08-07 04:51:00,
2013-08-07 05:56:00,53.5,50.3,29.98,SSW,194,0.0,0.0,89,0.00,OVC,,0.00,0.0,WeatherDisplay:10.37,2013-08-07 04:56:00,
2013-08-07 06:01:00,53.3,50.1,29.99,SSW,194,0.0,0.0,89,0.00,OVC,,0.00,0.0,WeatherDisplay:10.37,2013-08-07 05:01:00,
2013-08-07 06:06:00,53.1,49.9,29.99,SW,224,0.0,0.0,89,0.00,OVC,,0.00,0.0,WeatherDisplay:10.37,2013-08-07 05:06:00,
2013-08-07 06:11:00,53.2,50.3,29.99,SW,224,0.0,0.0,90,0.00,OVC,,0.00,0.0,WeatherDisplay:10.37,2013-08-07 05:11:00,
2013-08-07 06:16:00,53.1,50.5,30.00,SW,224,0.0,0.0,91,0.00,OVC,,0.00,0.0,WeatherDisplay:10.37,2013-08-07 05:16:00,
2013-08-07 06:21:00,53.1,50.5,30.00,SW,224,0.0,0.0,91,0.00,OVC,,0.00,0.0,WeatherDisplay:10.37,2013-08-07 05:21:00,
2013-08-07 06:26:00,53.1,50.5,30.00,SW,224,0.0,0.0,91,0.00,OVC,,0.00,0.0,WeatherDisplay:10.37,2013-08-07 05:26:00,
2013-08-07 06:31:00,53.0,50.4,30.00,SW,228,0.0,0.0,91,0.00,OVC,,0.00,0.0,WeatherDisplay:10.37,2013-08-07 05:31:00,
2013-08-07 06:36:00,53.0,50.7,30.00,SW,228,0.0,0.0,92,0.00,OVC,,0.00,0.0,WeatherDisplay:10.37,2013-08-07 05:36:00,
2013-08-07 06:41:00,53.1,50.8,30.00,SW,226,0.0,0.0,92,0.00,OVC,,0.00,0.0,WeatherDisplay:10.37,2013-08-07 05:41:00,
2013-08-07 06:46:00,53.1,50.8,30.00,SW,226,0.0,0.0,92,0.00,OVC,,0.00,0.0,WeatherDisplay:10.37,2013-08-07 05:46:00,
2013-08-07 06:51:00,53.2,50.9,30.00,SW,226,0.0,0.0,92,0.00,OVC,,0.00,0.0,WeatherDisplay:10.37,2013-08-07 05:51:00,
2013-08-07 06:56:00,53.3,51.0,30.00,SW,226,0.0,0.0,92,0.00,OVC,,0.00,0.0,WeatherDisplay:10.37,2013-08-07 05:56:00,
2013-08-07 07:01:00,53.4,51.1,30.00,SW,226,0.0,0.0,92,0.00,OVC,,0.00,0.0,WeatherDisplay:10.37,2013-08-07 06:01:00,
2013-08-07 07:06:00,53.5,51.2,30.00,SW,226,0.0,0.0,92,0.00,OVC,,0.00,0.0,WeatherDisplay:10.37,2013-08-07 06:06:00,
2013-08-07 07:11:00,53.7,51.4,30.00,SW,226,0.0,0.0,92,0.00,OVC,,0.00,0.0,WeatherDisplay:10.37,2013-08-07 06:11:00,
2013-08-07 07:16:00,53.8,51.5,30.00,SW,228,0.0,0.0,92,0.00,OVC,,0.00,0.0,WeatherDisplay:10.37,2013-08-07 06:16:00,
2013-08-07 07:21:00,53.9,51.6,29.99,SW,226,0.0,0.0,92,0.00,OVC,,0.00,0.0,WeatherDisplay:10.37,2013-08-07 06:21:00,
2013-08-07 07:26:00,54.1,51.8,30.00,SW,226,0.0,0.0,92,0.00,OVC,,0.00,0.0,WeatherDisplay:10.37,2013-08-07 06:26:00,
2013-08-07 07:31:00,54.2,51.9,29.99,SW,226,0.0,0.0,92,0.00,OVC,,0.00,0.0,WeatherDisplay:10.37,2013-08-07 06:31:00,
2013-08-07 07:36:00,54.3,51.7,29.99,SW,226,0.0,0.0,91,0.00,OVC,,0.00,0.0,WeatherDisplay:10.37,2013-08-07 06:36:00,
2013-08-07 07:42:00,54.4,51.8,29.99,SW,219,1.2,0.0,91,0.00,OVC,,0.00,0.0,WeatherDisplay:10.37,2013-08-07 06:42:00,
2013-08-07 07:47:00,54.6,52.3,30.00,SW,219,0.0,0.0,92,0.00,OVC,,0.00,0.0,WeatherDisplay:10.37,2013-08-07 06:47:00,
2013-08-07 07:52:00,54.9,52.6,30.00,SW,219,0.0,0.0,92,0.00,OVC,,0.00,0.0,WeatherDisplay:10.37,2013-08-07 06:52:00,
2013-08-07 07:57:00,55.2,52.6,30.00,SW,219,0.0,0.0,91,0.00,OVC,,0.00,0.0,WeatherDisplay:10.37,2013-08-07 06:57:00,
2013-08-07 08:02:00,55.6,53.0,30.00,SW,219,0.0,0.0,91,0.00,OVC,,0.00,0.0,WeatherDisplay:10.37,2013-08-07 07:02:00,
2013-08-07 08:07:00,55.9,53.3,30.00,SW,219,0.0,0.0,91,0.00,OVC,,0.00,0.0,WeatherDisplay:10.37,2013-08-07 07:07:00,
2013-08-07 08:12:00,56.3,53.4,30.00,SW,221,1.2,0.0,90,0.00,OVC,,0.00,0.0,WeatherDisplay:10.37,2013-08-07 07:12:00,
2013-08-07 08:17:00,56.6,53.4,30.00,SW,221,0.0,0.0,89,0.00,OVC,,0.00,0.0,WeatherDisplay:10.37,2013-08-07 07:17:00,
2013-08-07 08:22:00,57.0,53.8,30.01,SW,221,0.0,0.1,89,0.00,OVC,,0.00,0.0,WeatherDisplay:10.37,2013-08-07 07:22:00,
2013-08-07 08:27:00,57.3,53.5,30.01,SSW,192,0.0,0.0,87,0.00,OVC,,0.00,0.0,WeatherDisplay:10.37,2013-08-07 07:27:00,
2013-08-07 08:32:00,57.6,53.4,30.01,SSW,192,0.0,0.0,86,0.00,OVC,,0.00,0.0,WeatherDisplay:10.37,2013-08-07 07:32:00,
2013-08-07 08:37:00,58.0,53.8,30.01,SSW,208,0.0,0.0,86,0.00,OVC,,0.00,0.0,WeatherDisplay:10.37,2013-08-07 07:37:00,
2013-08-07 08:42:00,58.2,53.4,30.01,WSW,257,0.0,0.0,84,0.00,OVC,,0.00,0.0,WeatherDisplay:10.37,2013-08-07 07:42:00,
2013-08-07 08:47:00,58.4,53.6,30.01,WSW,257,0.0,0.0,84,0.00,OVC,,0.00,0.0,WeatherDisplay:10.37,2013-08-07 07:47:00,
2013-08-07 08:52:00,58.5,53.4,30.01,WSW,257,0.0,0.0,83,0.00,OVC,,0.00,0.0,WeatherDisplay:10.37,2013-08-07 07:52:00,
2013-08-07 08:57:00,58.7,53.9,30.01,WSW,257,0.0,0.0,84,0.00,OVC,,0.00,0.0,WeatherDisplay:10.37,2013-08-07 07:57:00,
2013-08-07 09:02:00,58.8,53.3,30.01,SW,219,0.0,0.0,82,0.00,OVC,,0.00,0.0,WeatherDisplay:10.37,2013-08-07 08:02:00,
2013-08-07 09:07:00,59.0,53.2,30.01,SW,219,1.2,1.2,81,0.00,OVC,,0.00,0.0,WeatherDisplay:10.37,2013-08-07 08:07:00,
2013-08-07 09:12:00,59.5,54.0,30.01,SW,219,0.0,0.0,82,0.00,OVC,,0.00,0.0,WeatherDisplay:10.37,2013-08-07 08:12:00,
2013-08-07 09:17:00,60.1,53.9,30.01,South,190,0.0,0.0,80,0.00,OVC,,0.00,0.0,WeatherDisplay:10.37,2013-08-07 08:17:00,
2013-08-07 09:22:00,60.6,54.0,30.01,South,190,0.0,0.0,79,0.00,OVC,,0.00,0.0,WeatherDisplay:10.37,2013-08-07 08:22:00,
2013-08-07 09:27:00,61.1,54.2,30.01,South,177,0.0,0.0,78,0.00,OVC,,0.00,0.0,WeatherDisplay:10.37,2013-08-07 08:27:00,
2013-08-07 09:32:00,61.6,54.7,30.01,South,177,0.0,0.0,78,0.00,OVC,,0.00,0.0,WeatherDisplay:10.37,2013-08-07 08:32:00,
2013-08-07 09:37:00,62.1,54.4,30.01,South,177,0.0,0.0,76,0.00,OVC,,0.00,0.0,WeatherDisplay:10.37,2013-08-07 08:37:00,
2013-08-07 09:42:00,62.4,54.0,30.01,South,177,0.0,0.0,74,0.00,OVC,,0.00,0.0,WeatherDisplay:10.37,2013-08-07 08:42:00,
2013-08-07 09:47:00,62.6,54.2,30.01,South,177,0.0,0.0,74,0.00,OVC,,0.00,0.0,WeatherDisplay:10.37,2013-08-07 08:47:00,
2013-08-07 09:52:00,63.0,54.6,30.01,South,190,0.0,0.0,74,0.00,OVC,,0.00,0.0,WeatherDisplay:10.37,2013-08-07 08:52:00,
2013-08-07 09:57:00,63.3,54.1,30.01,South,190,0.0,0.0,72,0.00,OVC,,0.00,0.0,WeatherDisplay:10.37,2013-08-07 08:57:00,
2013-08-07 10:02:00,63.1,53.9,30.01,South,173,2.3,2.3,72,0.00,FEW,OVC,0.00,0.0,WeatherDisplay:10.37,2013-08-07 09:02:00,
2013-08-07 10:07:00,62.8,54.4,30.01,SE,136,0.0,0.0,74,0.00,FEW,OVC,0.00,0.0,WeatherDisplay:10.37,2013-08-07 09:07:00,
2013-08-07 10:12:00,63.1,54.3,30.01,South,174,0.0,0.0,73,0.00,FEW,OVC,0.00,0.0,WeatherDisplay:10.37,2013-08-07 09:12:00,
2013-08-07 10:17:00,63.5,54.3,30.01,SE,146,0.0,0.0,72,0.00,FEW,OVC,0.00,0.0,WeatherDisplay:10.37,2013-08-07 09:17:00,
2013-08-07 10:22:00,63.6,53.2,30.01,NNW,328,1.2,0.0,69,0.00,FEW,OVC,0.00,0.0,WeatherDisplay:10.37,2013-08-07 09:22:00,
2013-08-07 10:27:00,63.6,53.2,30.01,WNW,284,1.2,1.2,69,0.00,FEW,OVC,0.00,0.0,WeatherDisplay:10.37,2013-08-07 09:27:00,
2013-08-07 10:32:00,64.0,53.6,30.01,WNW,284,0.0,0.1,69,0.00,FEW,OVC,0.00,0.0,WeatherDisplay:10.37,2013-08-07 09:32:00,
2013-08-07 10:37:00,63.9,53.5,30.01,SSE,154,0.0,0.0,69,0.00,FEW,OVC,0.00,0.0,WeatherDisplay:10.37,2013-08-07 09:37:00,
2013-08-07 10:42:00,64.2,53.8,30.01,SSE,154,0.0,0.0,69,0.00,FEW,OVC,0.00,0.0,WeatherDisplay:10.37,2013-08-07 09:42:00,
2013-08-07 10:47:00,64.0,53.2,30.01,SSW,203,0.0,0.0,68,0.00,FEW,OVC,0.00,0.0,WeatherDisplay:10.37,2013-08-07 09:47:00,
2013-08-07 10:52:00,63.8,53.4,30.01,SSW,203,0.0,0.0,69,0.00,FEW,OVC,0.00,0.0,WeatherDisplay:10.37,2013-08-07 09:52:00,
2013-08-07 10:57:00,63.9,53.5,30.01,SSW,203,0.0,0.0,69,0.00,FEW,OVC,0.00,0.0,WeatherDisplay:10.37,2013-08-07 09:57:00,
2013-08-07 11:02:00,64.1,53.7,30.01,SSW,192,0.0,0.0,69,0.00,SCT,OVC,0.00,0.0,WeatherDisplay:10.37,2013-08-07 10:02:00,
2013-08-07 11:07:00,64.5,53.7,30.01,WNW,298,1.2,1.2,68,0.00,SCT,OVC,0.00,0.0,WeatherDisplay:10.37,2013-08-07 10:07:00,
2013-08-07 11:12:00,64.5,54.5,30.01,NW,314,0.0,0.0,70,0.00,SCT,OVC,0.00,0.0,WeatherDisplay:10.37,2013-08-07 10:12:00,
2013-08-07 11:17:00,64.9,54.1,30.01,ESE,122,1.2,1.2,68,0.00,SCT,OVC,0.00,0.0,WeatherDisplay:10.37,2013-08-07 10:17:00,
2013-08-07 11:22:00,65.2,54.4,30.01,SE,124,1.2,1.2,68,0.00,SCT,OVC,0.00,0.0,WeatherDisplay:10.37,2013-08-07 10:22:00,
2013-08-07 11:27:00,65.1,54.3,30.02,SSE,163,1.2,1.2,68,0.00,SCT,OVC,0.00,0.0,WeatherDisplay:10.37,2013-08-07 10:27:00,
2013-08-07 11:32:00,65.6,55.2,30.02,SSE,163,0.0,0.0,69,0.00,SCT,OVC,0.00,0.0,WeatherDisplay:10.37,2013-08-07 10:32:00,
2013-08-07 11:37:00,66.1,54.8,30.02,WNW,285,0.0,0.0,67,0.00,SCT,OVC,0.00,0.0,WeatherDisplay:10.37,2013-08-07 10:37:00,
2013-08-07 11:42:00,65.9,54.2,30.02,WNW,285,1.2,0.0,66,0.00,SCT,OVC,0.00,0.0,WeatherDisplay:10.37,2013-08-07 10:42:00,
2013-08-07 11:47:00,65.4,54.6,30.02,WNW,300,0.0,0.0,68,0.00,SCT,OVC,0.00,0.0,WeatherDisplay:10.37,2013-08-07 10:47:00,
2013-08-07 11:52:00,65.5,54.7,30.02,WNW,300,0.0,0.0,68,0.00,SCT,OVC,0.00,0.0,WeatherDisplay:10.37,2013-08-07 10:52:00,
2013-08-07 11:57:00,65.5,54.2,30.02,WNW,300,0.0,0.0,67,0.00,SCT,OVC,0.00,0.0,WeatherDisplay:10.37,2013-08-07 10:57:00,
2013-08-07 12:02:00,65.5,54.7,30.02,WNW,300,0.0,0.0,68,0.00,SCT,OVC,0.00,0.0,WeatherDisplay:10.37,2013-08-07 11:02:00,
2013-08-07 12:07:00,65.7,54.8,30.02,WNW,300,0.0,0.0,68,0.00,SCT,OVC,0.00,0.0,WeatherDisplay:10.37,2013-08-07 11:07:00,
2013-08-07 12:12:00,65.8,54.9,30.02,WNW,300,0.0,0.0,68,0.00,SCT,OVC,0.00,0.0,WeatherDisplay:10.37,2013-08-07 11:12:00,
2013-08-07 12:17:00,66.1,55.2,30.02,WNW,300,0.0,0.0,68,0.00,SCT,OVC,0.00,0.0,WeatherDisplay:10.37,2013-08-07 11:17:00,
2013-08-07 12:23:00,66.3,54.6,30.02,SE,134,0.0,0.1,66,0.00,SCT,OVC,0.00,0.0,WeatherDisplay:10.37,2013-08-07 11:23:00,
2013-08-07 12:28:00,65.8,54.5,30.02,SE,129,0.0,0.0,67,0.00,SCT,OVC,0.00,0.0,WeatherDisplay:10.37,2013-08-07 11:28:00,
2013-08-07 12:33:00,65.8,54.5,30.02,SSW,196,0.0,0.0,67,0.00,SCT,OVC,0.00,0.0,WeatherDisplay:10.37,2013-08-07 11:33:00,
2013-08-07 12:38:00,66.1,54.8,30.02,SSW,195,0.0,0.0,67,0.00,SCT,OVC,0.00,0.0,WeatherDisplay:10.37,2013-08-07 11:38:00,
2013-08-07 12:43:00,66.8,56.7,30.02,SSW,195,0.0,0.0,70,0.00,SCT,OVC,0.00,0.0,WeatherDisplay:10.37,2013-08-07 11:43:00,
2013-08-07 12:48:00,67.2,53.3,30.02,ESE,122,3.5,3.5,61,0.00,SCT,OVC,0.00,0.0,WeatherDisplay:10.37,2013-08-07 11:48:00,
2013-08-07 12:53:00,67.0,54.8,30.02,SE,131,1.0,1.0,65,0.00,SCT,OVC,0.00,0.0,WeatherDisplay:10.37,2013-08-07 11:53:00,
2013-08-07 12:58:00,66.4,53.8,30.02,ESE,113,2.3,2.3,64,0.00,SCT,OVC,0.00,0.0,WeatherDisplay:10.37,2013-08-07 11:58:00,
2013-08-07 13:03:00,66.0,53.9,30.02,SE,131,1.2,1.2,65,0.00,SCT,OVC,0.00,0.0,WeatherDisplay:10.37,2013-08-07 12:03:00,
2013-08-07 13:08:00,65.7,54.0,30.02,SE,125,1.2,0.0,66,0.00,SCT,OVC,0.00,0.0,WeatherDisplay:10.37,2013-08-07 12:08:00,
2013-08-07 13:13:00,66.3,54.6,30.02,SSE,150,2.3,2.3,66,0.00,SCT,OVC,0.00,0.0,WeatherDisplay:10.37,2013-08-07 12:13:00,
2013-08-07 13:18:00,66.5,54.4,30.02,ESE,117,1.2,1.2,65,0.00,SCT,OVC,0.00,0.0,WeatherDisplay:10.37,2013-08-07 12:18:00,
2013-08-07 13:23:00,66.5,54.4,30.02,West,280,0.0,0.0,65,0.00,SCT,OVC,0.00,0.0,WeatherDisplay:10.37,2013-08-07 12:23:00,
2013-08-07 13:28:00,66.8,54.7,30.02,West,280,0.0,0.0,65,0.00,SCT,OVC,0.00,0.0,WeatherDisplay:10.37,2013-08-07 12:28:00,
2013-08-07 13:33:00,66.8,55.1,30.02,WNW,285,0.0,0.0,66,0.00,FEW,OVC,0.00,0.0,WeatherDisplay:10.37,2013-08-07 12:33:00,
2013-08-07 13:38:00,67.1,55.4,30.02,WNW,283,1.2,1.2,66,0.00,FEW,OVC,0.00,0.0,WeatherDisplay:10.37,2013-08-07 12:38:00,
2013-08-07 13:43:00,67.3,55.5,30.01,WNW,283,1.2,1.2,66,0.00,FEW,OVC,0.00,0.0,WeatherDisplay:10.37,2013-08-07 12:43:00,
2013-08-07 13:48:00,67.2,54.6,30.01,SSE,153,0.0,0.0,64,0.00,FEW,OVC,0.00,0.0,WeatherDisplay:10.37,2013-08-07 12:48:00,
2013-08-07 13:53:00,67.6,55.0,30.01,South,179,0.0,0.0,64,0.00,FEW,OVC,0.00,0.0,WeatherDisplay:10.37,2013-08-07 12:53:00,
2013-08-07 13:58:00,67.7,55.5,30.02,NNW,340,1.2,0.0,65,0.00,FEW,OVC,0.00,0.0,WeatherDisplay:10.37,2013-08-07 12:58:00,
2013-08-07 14:03:00,67.9,54.8,30.01,NNW,340,0.0,0.0,63,0.00,FEW,OVC,0.00,0.0,WeatherDisplay:10.37,2013-08-07 13:03:00,
2013-08-07 14:08:00,68.2,56.0,30.01,NW,311,0.0,0.0,65,0.00,FEW,OVC,0.00,0.0,WeatherDisplay:10.37,2013-08-07 13:08:00,
2013-08-07 14:13:00,68.8,57.0,30.01,NNW,340,0.0,0.0,66,0.00,FEW,OVC,0.00,0.0,WeatherDisplay:10.37,2013-08-07 13:13:00,
2013-08-07 14:18:00,69.7,57.0,30.01,NNW,337,0.0,0.0,64,0.00,FEW,OVC,0.00,0.0,WeatherDisplay:10.37,2013-08-07 13:18:00,
2013-08-07 14:23:00,70.3,55.8,30.01,WSW,245,1.2,0.0,60,0.00,FEW,OVC,0.00,0.0,WeatherDisplay:10.37,2013-08-07 13:23:00,
2013-08-07 14:28:00,70.4,55.4,30.01,WSW,248,0.0,0.0,59,0.00,FEW,OVC,0.00,0.0,WeatherDisplay:10.37,2013-08-07 13:28:00,
2013-08-07 14:33:00,70.5,56.4,30.01,WSW,248,0.0,0.0,61,0.00,SCT,OVC,0.00,0.0,WeatherDisplay:10.37,2013-08-07 13:33:00,
2013-08-07 14:38:00,70.8,56.2,30.01,WSW,246,0.0,0.0,60,0.00,SCT,OVC,0.00,0.0,WeatherDisplay:10.37,2013-08-07 13:38:00,
2013-08-07 14:43:00,70.8,55.8,30.01,ESE,113,1.2,1.2,59,0.00,SCT,OVC,0.00,0.0,WeatherDisplay:10.37,2013-08-07 13:43:00,
2013-08-07 14:48:00,70.9,55.9,30.01,ESE,120,0.0,0.0,59,0.00,SCT,OVC,0.00,0.0,WeatherDisplay:10.37,2013-08-07 13:48:00,
2013-08-07 14:53:00,70.8,57.1,30.01,SE,131,0.0,0.0,62,0.00,SCT,OVC,0.00,0.0,WeatherDisplay:10.37,2013-08-07 13:53:00,
2013-08-07 14:58:00,70.9,55.9,30.01,SE,131,1.2,1.2,59,0.00,SCT,OVC,0.00,0.0,WeatherDisplay:10.37,2013-08-07 13:58:00,
2013-08-07 15:03:00,70.6,56.0,30.01,SW,228,0.0,0.0,60,0.00,SCT,OVC,0.00,0.0,WeatherDisplay:10.37,2013-08-07 14:03:00,
2013-08-07 15:08:00,70.6,56.0,30.01,ESE,120,0.0,0.0,60,0.00,SCT,OVC,0.00,0.0,WeatherDisplay:10.37,2013-08-07 14:08:00,
2013-08-07 15:13:00,70.6,56.0,30.01,ESE,121,1.2,1.2,60,0.00,SCT,OVC,0.00,0.0,WeatherDisplay:10.37,2013-08-07 14:13:00,
2013-08-07 15:18:00,70.6,56.5,30.01,ESE,121,0.0,0.0,61,0.00,SCT,OVC,0.00,0.0,WeatherDisplay:10.37,2013-08-07 14:18:00,
2013-08-07 15:23:00,70.5,55.5,30.01,SE,141,0.0,0.0,59,0.00,SCT,OVC,0.00,0.0,WeatherDisplay:10.37,2013-08-07 14:23:00,
2013-08-07 15:28:00,70.9,55.9,30.01,ESE,110,1.2,0.0,59,0.00,SCT,OVC,0.00,0.0,WeatherDisplay:10.37,2013-08-07 14:28:00,
2013-08-07 15:33:00,71.1,56.0,30.01,ESE,113,0.0,0.0,59,0.00,-RA,OVC,0.00,0.0,WeatherDisplay:10.37,2013-08-07 14:33:00,
2013-08-07 15:38:00,70.9,55.4,30.01,SE,141,0.0,0.0,58,0.00,-RA,OVC,0.00,0.0,WeatherDisplay:10.37,2013-08-07 14:38:00,
2013-08-07 15:43:00,70.6,55.6,30.01,SE,141,0.0,0.0,59,0.00,-RA,OVC,0.00,0.0,WeatherDisplay:10.37,2013-08-07 14:43:00,
2013-08-07 15:48:00,70.5,55.9,30.01,SE,141,0.0,0.1,60,0.00,-RA,OVC,0.00,0.0,WeatherDisplay:10.37,2013-08-07 14:48:00,
2013-08-07 15:53:00,69.8,55.7,30.01,SE,141,1.0,1.0,61,0.00,-RA,OVC,0.00,0.0,WeatherDisplay:10.37,2013-08-07 14:53:00,
2013-08-07 15:58:00,69.1,56.0,30.01,SE,141,0.0,0.0,63,0.00,-RA,OVC,0.00,0.0,WeatherDisplay:10.37,2013-08-07 14:58:00,
2013-08-07 16:03:00,69.0,55.9,30.01,SE,141,0.0,0.0,63,0.00,SCT,OVC,0.00,0.0,WeatherDisplay:10.37,2013-08-07 15:03:00,
2013-08-07 16:08:00,68.7,55.2,30.01,South,181,0.0,0.0,62,0.00,SCT,OVC,0.00,0.0,WeatherDisplay:10.37,2013-08-07 15:08:00,
2013-08-07 16:13:00,68.4,55.3,30.01,SSW,195,0.0,0.0,63,0.00,SCT,OVC,0.00,0.0,WeatherDisplay:10.37,2013-08-07 15:13:00,
2013-08-07 16:18:00,68.8,55.7,30.00,SSW,194,0.0,0.0,63,0.00,SCT,OVC,0.00,0.0,WeatherDisplay:10.37,2013-08-07 15:18:00,
2013-08-07 16:23:00,69.0,56.3,30.01,SW,216,0.0,0.0,64,0.00,SCT,OVC,0.00,0.0,WeatherDisplay:10.37,2013-08-07 15:23:00,
2013-08-07 16:28:00,69.4,55.8,30.01,SW,215,0.0,0.0,62,0.00,SCT,OVC,0.00,0.0,WeatherDisplay:10.37,2013-08-07 15:28:00,
2013-08-07 16:33:00,69.3,56.2,30.01,South,181,0.0,0.0,63,0.00,SCT,OVC,0.00,0.0,WeatherDisplay:10.37,2013-08-07 15:33:00,
2013-08-07 16:38:00,69.7,55.6,30.01,WSW,242,0.0,0.0,61,0.00,SCT,OVC,0.00,0.0,WeatherDisplay:10.37,2013-08-07 15:38:00,
2013-08-07 16:43:00,70.0,56.4,30.01,WSW,242,0.0,0.0,62,0.00,SCT,OVC,0.00,0.0,WeatherDisplay:10.37,2013-08-07 15:43:00,
2013-08-07 16:48:00,70.3,55.3,30.01,SSE,150,2.3,0.0,59,0.00,SCT,OVC,0.00,0.0,WeatherDisplay:10.37,2013-08-07 15:48:00,
2013-08-07 16:53:00,70.1,56.0,30.01,SE,135,0.0,0.0,61,0.00,SCT,OVC,0.00,0.0,WeatherDisplay:10.37,2013-08-07 15:53:00,
2013-08-07 16:58:00,69.9,55.4,30.01,SE,135,0.0,0.2,60,0.00,SCT,OVC,0.00,0.0,WeatherDisplay:10.37,2013-08-07 15:58:00,
2013-08-07 17:03:00,69.8,56.6,30.01,ESE,116,0.0,0.0,63,0.00,OVC,,0.00,0.0,WeatherDisplay:10.37,2013-08-07 16:03:00,
2013-08-07 17:08:00,69.9,55.8,30.01,ESE,117,1.2,0.0,61,0.00,OVC,,0.00,0.0,WeatherDisplay:10.37,2013-08-07 16:08:00,
2013-08-07 17:13:00,69.1,56.4,30.01,South,188,1.2,0.0,64,0.00,OVC,,0.00,0.0,WeatherDisplay:10.37,2013-08-07 16:13:00,
2013-08-07 17:19:00,68.6,55.1,30.01,SSE,162,1.2,1.2,62,0.00,OVC,,0.00,0.0,WeatherDisplay:10.37,2013-08-07 16:19:00,
2013-08-07 17:24:00,68.4,54.9,30.01,ESE,119,2.3,2.3,62,0.00,OVC,,0.00,0.0,WeatherDisplay:10.37,2013-08-07 16:24:00,
2013-08-07 17:29:00,68.1,55.0,30.01,SE,141,0.0,0.0,63,0.00,OVC,,0.00,0.0,WeatherDisplay:10.37,2013-08-07 16:29:00,
2013-08-07 17:34:00,67.8,55.2,30.01,East,91,1.2,1.2,64,0.00,SCT,OVC,0.00,0.0,WeatherDisplay:10.37,2013-08-07 16:34:00,
2013-08-07 17:39:00,67.8,55.6,30.01,East,90,0.0,0.0,65,0.00,SCT,OVC,0.00,0.0,WeatherDisplay:10.37,2013-08-07 16:39:00,
2013-08-07 17:44:00,67.8,54.3,30.01,East,91,0.0,0.1,62,0.00,SCT,OVC,0.00,0.0,WeatherDisplay:10.37,2013-08-07 16:44:00,
2013-08-07 17:49:00,67.9,55.3,30.01,East,90,0.0,0.0,64,0.00,SCT,OVC,0.00,0.0,WeatherDisplay:10.37,2013-08-07 16:49:00,
2013-08-07 17:54:00,67.9,55.7,30.01,East,94,0.0,0.1,65,0.00,SCT,OVC,0.00,0.0,WeatherDisplay:10.37,2013-08-07 16:54:00,
2013-08-07 17:59:00,67.6,55.8,30.01,SE,130,1.2,1.2,66,0.00,SCT,OVC,0.00,0.0,WeatherDisplay:10.37,2013-08-07 16:59:00,
2013-08-07 18:04:00,67.1,56.2,30.01,SE,134,1.0,1.0,68,0.00,SCT,OVC,0.00,0.0,WeatherDisplay:10.37,2013-08-07 17:04:00,
2013-08-07 18:09:00,66.6,56.1,30.01,SE,127,1.2,1.2,69,0.00,SCT,OVC,0.00,0.0,WeatherDisplay:10.37,2013-08-07 17:09:00,
2013-08-07 18:14:00,66.2,55.7,30.01,ESE,118,1.2,1.2,69,0.00,SCT,OVC,0.00,0.0,WeatherDisplay:10.37,2013-08-07 17:14:00,
2013-08-07 18:19:00,65.9,55.4,30.01,SSE,164,0.0,0.4,69,0.00,SCT,OVC,0.00,0.0,WeatherDisplay:10.37,2013-08-07 17:19:00,
2013-08-07 18:24:00,65.6,55.9,30.01,ESE,110,1.2,1.2,71,0.00,SCT,OVC,0.00,0.0,WeatherDisplay:10.37,2013-08-07 17:24:00,
2013-08-07 18:29:00,65.4,56.1,30.02,SSW,212,1.2,1.2,72,0.00,SCT,OVC,0.00,0.0,WeatherDisplay:10.37,2013-08-07 17:29:00,
2013-08-07 18:34:00,65.1,55.5,30.01,SE,129,1.2,1.2,71,0.00,SCT,OVC,0.00,0.0,WeatherDisplay:10.37,2013-08-07 17:34:00,
2013-08-07 18:39:00,64.7,56.2,30.02,ESE,107,1.2,0.0,74,0.00,SCT,OVC,0.00,0.0,WeatherDisplay:10.37,2013-08-07 17:39:00,
2013-08-07 18:44:00,64.5,56.8,30.02,ESE,107,0.0,0.1,76,0.00,SCT,OVC,0.00,0.0,WeatherDisplay:10.37,2013-08-07 17:44:00,
2013-08-07 18:49:00,64.1,57.1,30.02,ESE,108,0.0,0.0,78,0.00,SCT,OVC,0.00,0.0,WeatherDisplay:10.37,2013-08-07 17:49:00,
2013-08-07 18:54:00,63.7,57.1,30.02,ESE,108,0.0,0.0,79,0.01,RA,OVC,0.01,0.0,WeatherDisplay:10.37,2013-08-07 17:54:00,
2013-08-07 18:59:00,63.2,56.9,30.02,ESE,109,0.0,0.0,80,0.05,RA,OVC,0.05,0.0,WeatherDisplay:10.37,2013-08-07 17:59:00,
2013-08-07 19:04:00,63.0,57.4,30.02,ESE,110,0.0,0.0,82,0.16,-RA,OVC,0.16,0.0,WeatherDisplay:10.37,2013-08-07 18:04:00,
2013-08-07 19:09:00,62.7,57.8,30.02,ESE,110,0.0,0.0,84,0.17,-RA,OVC,0.17,0.0,WeatherDisplay:10.37,2013-08-07 18:09:00,
2013-08-07 19:14:00,62.4,57.5,30.02,SE,143,0.0,0.0,84,0.17,-RA,OVC,0.17,0.0,WeatherDisplay:10.37,2013-08-07 18:14:00,
2013-08-07 19:19:00,62.0,57.1,30.03,SE,130,1.2,0.0,84,0.19,-RA,OVC,0.19,0.0,WeatherDisplay:10.37,2013-08-07 18:19:00,
2013-08-07 19:24:00,61.6,56.7,30.03,SSE,157,0.0,0.0,84,0.20,-RA,OVC,0.20,0.0,WeatherDisplay:10.37,2013-08-07 18:24:00,
2013-08-07 19:29:00,61.4,56.8,30.03,SSE,150,0.0,0.0,85,0.21,-RA,OVC,0.21,0.0,WeatherDisplay:10.37,2013-08-07 18:29:00,
2013-08-07 19:34:00,61.3,57.4,30.03,SSE,151,0.0,0.0,87,0.24,-RA,OVC,0.24,0.0,WeatherDisplay:10.37,2013-08-07 18:34:00,
2013-08-07 19:39:00,61.1,57.5,30.03,WSW,257,1.2,1.2,88,0.26,-RA,OVC,0.26,0.0,WeatherDisplay:10.37,2013-08-07 18:39:00,
2013-08-07 19:44:00,61.0,57.4,30.03,WSW,252,0.0,0.0,88,0.26,-RA,OVC,0.26,0.0,WeatherDisplay:10.37,2013-08-07 18:44:00,
2013-08-07 19:49:00,60.8,57.5,30.03,WSW,252,0.0,0.0,89,0.26,-RA,OVC,0.26,0.0,WeatherDisplay:10.37,2013-08-07 18:49:00,
2013-08-07 19:54:00,60.7,57.4,30.03,WNW,282,0.0,0.0,89,0.25,-RA,OVC,0.26,0.0,WeatherDisplay:10.37,2013-08-07 18:54:00,
2013-08-07 19:59:00,60.7,57.4,30.03,West,281,0.0,0.0,89,0.21,-RA,OVC,0.26,0.0,WeatherDisplay:10.37,2013-08-07 18:59:00,
2013-08-07 20:04:00,60.7,57.4,30.03,West,280,0.0,0.0,89,0.10,SCT,OVC,0.26,0.0,WeatherDisplay:10.37,2013-08-07 19:04:00,
2013-08-07 20:09:00,60.7,57.4,30.03,West,278,0.0,0.0,89,0.09,RA,OVC,0.27,0.0,WeatherDisplay:10.37,2013-08-07 19:09:00,
2013-08-07 20:14:00,60.7,57.7,30.04,West,278,1.2,0.0,90,0.09,RA,OVC,0.27,0.0,WeatherDisplay:10.37,2013-08-07 19:14:00,
2013-08-07 20:19:00,60.6,57.3,30.04,West,270,0.0,0.0,89,0.08,SCT,OVC,0.27,0.0,WeatherDisplay:10.37,2013-08-07 19:19:00,
2013-08-07 20:24:00,60.6,57.7,30.04,West,269,0.0,0.0,90,0.07,SCT,OVC,0.27,0.0,WeatherDisplay:10.37,2013-08-07 19:24:00,
2013-08-07 20:29:00,60.6,57.3,30.04,SSE,163,1.2,1.2,89,0.06,SCT,OVC,0.27,0.0,WeatherDisplay:10.37,2013-08-07 19:29:00,
2013-08-07 20:34:00,60.4,57.1,30.04,SE,137,0.0,0.0,89,0.03,SCT,OVC,0.27,0.0,WeatherDisplay:10.37,2013-08-07 19:34:00,
2013-08-07 20:39:00,60.3,57.0,30.04,SE,133,1.2,0.0,89,0.01,SCT,OVC,0.27,0.0,WeatherDisplay:10.37,2013-08-07 19:39:00,
2013-08-07 20:44:00,60.1,56.8,30.04,SE,136,0.0,0.0,89,0.01,SCT,OVC,0.27,0.0,WeatherDisplay:10.37,2013-08-07 19:44:00,
2013-08-07 20:49:00,60.1,56.8,30.04,SE,133,1.2,1.2,89,0.01,SCT,OVC,0.27,0.0,WeatherDisplay:10.37,2013-08-07 19:49:00,
2013-08-07 20:54:00,59.9,56.6,30.04,SSW,195,1.2,1.2,89,0.01,SCT,OVC,0.27,0.0,WeatherDisplay:10.37,2013-08-07 19:54:00,
2013-08-07 20:59:00,59.7,56.8,30.04,SE,131,0.0,0.0,90,0.01,SCT,OVC,0.27,0.0,WeatherDisplay:10.37,2013-08-07 19:59:00,
2013-08-07 21:04:00,59.5,56.6,30.04,SSW,204,1.0,0.0,90,0.01,SCT,OVC,0.27,0.0,WeatherDisplay:10.37,2013-08-07 20:04:00,
2013-08-07 21:09:00,59.2,56.3,30.04,SW,235,0.0,0.0,90,0.00,SCT,OVC,0.27,0.0,WeatherDisplay:10.37,2013-08-07 20:09:00,
2013-08-07 21:14:00,59.0,56.1,30.04,WNW,294,1.2,1.2,90,0.00,SCT,OVC,0.27,0.0,WeatherDisplay:10.37,2013-08-07 20:14:00,
2013-08-07 21:19:00,58.8,55.9,30.04,SW,221,1.2,1.2,90,0.00,SCT,OVC,0.27,0.0,WeatherDisplay:10.37,2013-08-07 20:19:00,
2013-08-07 21:24:00,58.6,55.7,30.04,SE,139,1.2,1.2,90,0.00,SCT,OVC,0.27,0.0,WeatherDisplay:10.37,2013-08-07 20:24:00,
2013-08-07 21:29:00,58.4,55.2,30.04,West,259,1.2,1.2,89,0.00,SCT,OVC,0.27,0.0,WeatherDisplay:10.37,2013-08-07 20:29:00,
2013-08-07 21:34:00,58.2,55.0,30.05,SE,132,1.2,1.2,89,0.00,SCT,OVC,0.27,0.0,WeatherDisplay:10.37,2013-08-07 20:34:00,
2013-08-07 21:39:00,58.1,54.9,30.05,SE,132,1.2,0.0,89,0.00,SCT,OVC,0.27,0.0,WeatherDisplay:10.37,2013-08-07 20:39:00,
2013-08-07 21:44:00,57.9,54.7,30.05,SE,139,2.3,2.3,89,0.00,SCT,OVC,0.27,0.0,WeatherDisplay:10.37,2013-08-07 20:44:00,
2013-08-07 21:49:00,57.8,54.6,30.05,SSE,155,1.2,1.2,89,0.00,SCT,OVC,0.27,0.0,WeatherDisplay:10.37,2013-08-07 20:49:00,
2013-08-07 21:54:00,57.6,54.4,30.05,NW,311,1.2,0.0,89,0.00,SCT,OVC,0.27,0.0,WeatherDisplay:10.37,2013-08-07 20:54:00,
2013-08-07 21:59:00,57.5,54.3,30.05,West,270,0.0,0.0,89,0.00,SCT,OVC,0.27,0.0,WeatherDisplay:10.37,2013-08-07 20:59:00,
2013-08-07 22:04:00,57.6,54.4,30.05,West,271,1.0,0.0,89,0.00,SCT,OVC,0.27,0.0,WeatherDisplay:10.37,2013-08-07 21:04:00,
2013-08-07 22:09:00,57.6,54.4,30.05,West,270,0.0,0.1,89,0.00,SCT,OVC,0.27,0.0,WeatherDisplay:10.37,2013-08-07 21:09:00,
2013-08-07 22:14:00,57.6,54.4,30.05,West,267,1.2,1.2,89,0.00,SCT,OVC,0.27,0.0,WeatherDisplay:10.37,2013-08-07 21:14:00,
2013-08-07 22:19:00,57.7,54.5,30.05,West,274,0.0,0.1,89,0.00,SCT,OVC,0.27,0.0,WeatherDisplay:10.37,2013-08-07 21:19:00,
2013-08-07 22:24:00,57.6,54.7,30.06,West,274,0.0,0.0,90,0.00,SCT,OVC,0.27,0.0,WeatherDisplay:10.37,2013-08-07 21:24:00,
2013-08-07 22:29:00,57.6,54.7,30.06,West,274,0.0,0.0,90,0.00,SCT,OVC,0.27,0.0,WeatherDisplay:10.37,2013-08-07 21:29:00,
2013-08-07 22:34:00,57.6,54.7,30.06,SSW,208,0.0,0.0,90,0.00,-RA,OVC,0.27,0.0,WeatherDisplay:10.37,2013-08-07 21:34:00,
2013-08-07 22:39:00,57.6,54.7,30.06,WNW,283,1.2,1.2,90,0.00,-RA,OVC,0.27,0.0,WeatherDisplay:10.37,2013-08-07 21:39:00,
2013-08-07 22:44:00,57.6,54.7,30.06,WNW,283,0.0,0.0,90,0.00,-RA,OVC,0.27,0.0,WeatherDisplay:10.37,2013-08-07 21:44:00,
2013-08-07 22:49:00,57.6,54.7,30.06,West,281,0.0,0.0,90,0.00,-RA,OVC,0.27,0.0,WeatherDisplay:10.37,2013-08-07 21:49:00,
2013-08-07 22:55:00,57.5,54.6,30.06,West,281,0.0,0.0,90,0.00,-RA,OVC,0.27,0.0,WeatherDisplay:10.37,2013-08-07 21:55:00,
2013-08-07 23:00:00,57.5,54.6,30.06,West,281,0.0,0.0,90,0.00,-RA,OVC,0.27,0.0,WeatherDisplay:10.37,2013-08-07 22:00:00,
2013-08-07 23:05:00,57.4,54.5,30.06,West,281,0.0,0.0,90,0.00,CLR,OVC,0.27,0.0,WeatherDisplay:10.37,2013-08-07 22:05:00,
2013-08-07 23:10:00,57.2,54.3,30.06,West,281,0.0,0.0,90,0.00,CLR,OVC,0.27,0.0,WeatherDisplay:10.37,2013-08-07 22:10:00,
2013-08-07 23:15:00,56.8,53.6,30.06,West,281,0.0,0.0,89,0.00,CLR,OVC,0.27,0.0,WeatherDisplay:10.37,2013-08-07 22:15:00,
2013-08-07 23:20:00,56.6,53.7,30.06,West,281,0.0,0.1,90,0.00,CLR,OVC,0.27,0.0,WeatherDisplay:10.37,2013-08-07 22:20:00,
2013-08-07 23:25:00,56.4,53.8,30.06,West,281,0.0,0.0,91,0.00,CLR,OVC,0.27,0.0,WeatherDisplay:10.37,2013-08-07 22:25:00,
2013-08-07 23:30:00,56.3,53.7,30.06,West,281,0.0,0.0,91,0.00,CLR,OVC,0.27,0.0,WeatherDisplay:10.37,2013-08-07 22:30:00,
2013-08-07 23:35:00,56.2,53.6,30.06,West,281,0.0,0.0,91,0.00,CLR,OVC,0.27,0.0,WeatherDisplay:10.37,2013-08-07 22:35:00,
2013-08-07 23:40:00,56.1,53.5,30.06,SW,236,1.2,0.0,91,0.00,CLR,OVC,0.27,0.0,WeatherDisplay:10.37,2013-08-07 22:40:00,
2013-08-07 23:45:00,55.9,53.3,30.06,SW,231,0.0,0.0,91,0.00,CLR,OVC,0.27,0.0,WeatherDisplay:10.37,2013-08-07 22:45:00,
2013-08-07 23:50:00,55.8,53.2,30.06,SW,232,0.0,0.0,91,0.00,CLR,OVC,0.27,0.0,WeatherDisplay:10.37,2013-08-07 22:50:00,
2013-08-07 23:55:00,55.6,53.1,30.06,SW,232,0.0,1.0,91,0.00,CLR,OVC,0.27,0.0,WeatherDisplay:10.37,2013-08-07 22:55:00,